sensor_id;sensor_type;location;lat;lon;timestamp;temperature;humidity
44731;DHT22;30458;47.448;19.032;2022-12-07T00:06:40;5.00;99.90
44731;DHT22;30458;47.448;19.032;2022-12-07T00:16:42;4.50;99.90
44731;DHT22;30458;47.448;19.032;2022-12-07T00:26:45;4.40;99.90
44731;DHT22;30458;47.448;19.032;2022-12-07T00:36:51;4.80;99.90
44731;DHT22;30458;47.448;19.032;2022-12-07T00:46:52;5.00;99.90
44731;DHT22;30458;47.448;19.032;2022-12-07T00:56:52;5.10;99.90
44731;DHT22;30458;47.448;19.032;2022-12-07T01:06:56;5.20;99.90
44731;DHT22;30458;47.448;19.032;2022-12-07T01:17:01;5.00;99.90
44731;DHT22;30458;47.448;19.032;2022-12-07T01:27:09;4.90;99.90
44731;DHT22;30458;47.448;19.032;2022-12-07T01:37:10;4.90;99.90
44731;DHT22;30458;47.448;19.032;2022-12-07T01:47:11;4.90;99.90
44731;DHT22;30458;47.448;19.032;2022-12-07T01:57:12;4.90;99.90
44731;DHT22;30458;47.448;19.032;2022-12-07T02:07:15;4.90;99.90
44731;DHT22;30458;47.448;19.032;2022-12-07T02:17:34;4.90;99.90
44731;DHT22;30458;47.448;19.032;2022-12-07T02:27:46;4.70;99.90
44731;DHT22;30458;47.448;19.032;2022-12-07T02:48:05;5.10;99.90
44731;DHT22;30458;47.448;19.032;2022-12-07T02:58:39;5.20;99.90
44731;DHT22;30458;47.448;19.032;2022-12-07T03:08:50;5.40;99.90
44731;DHT22;30458;47.448;19.032;2022-12-07T03:19:13;5.10;99.90
44731;DHT22;30458;47.448;19.032;2022-12-07T03:29:20;4.20;99.90
44731;DHT22;30458;47.448;19.032;2022-12-07T03:39:44;4.30;99.90
44731;DHT22;30458;47.448;19.032;2022-12-07T03:49:53;4.80;99.90
44731;DHT22;30458;47.448;19.032;2022-12-07T03:59:55;5.40;99.90
44731;DHT22;30458;47.448;19.032;2022-12-07T04:09:59;5.70;99.90
44731;DHT22;30458;47.448;19.032;2022-12-07T04:20:00;5.70;99.90
44731;DHT22;30458;47.448;19.032;2022-12-07T04:30:03;5.90;99.90
44731;DHT22;30458;47.448;19.032;2022-12-07T04:40:09;5.90;99.90
44731;DHT22;30458;47.448;19.032;2022-12-07T04:50:14;6.00;99.90
44731;DHT22;30458;47.448;19.032;2022-12-07T05:00:20;6.00;99.90
44731;DHT22;30458;47.448;19.032;2022-12-07T05:10:25;5.90;99.90
44731;DHT22;30458;47.448;19.032;2022-12-07T05:20:26;6.00;99.90
44731;DHT22;30458;47.448;19.032;2022-12-07T05:30:27;6.10;99.90
44731;DHT22;30458;47.448;19.032;2022-12-07T05:40:30;6.20;99.90
44731;DHT22;30458;47.448;19.032;2022-12-07T05:50:31;5.40;99.90
44731;DHT22;30458;47.448;19.032;2022-12-07T06:00:34;5.00;99.90
44731;DHT22;30458;47.448;19.032;2022-12-07T06:10:35;4.60;99.90
44731;DHT22;30458;47.448;19.032;2022-12-07T06:20:36;4.90;99.90
44731;DHT22;30458;47.448;19.032;2022-12-07T06:30:36;5.40;99.90
44731;DHT22;30458;47.448;19.032;2022-12-07T06:40:37;5.50;99.90
44731;DHT22;30458;47.448;19.032;2022-12-07T06:50:38;5.80;99.90
44731;DHT22;30458;47.448;19.032;2022-12-07T07:00:38;5.90;99.90
44731;DHT22;30458;47.448;19.032;2022-12-07T07:10:40;6.00;99.90
44731;DHT22;30458;47.448;19.032;2022-12-07T07:20:40;6.10;99.90
44731;DHT22;30458;47.448;19.032;2022-12-07T07:30:46;6.20;99.90
44731;DHT22;30458;47.448;19.032;2022-12-07T07:40:49;6.30;99.90
44731;DHT22;30458;47.448;19.032;2022-12-07T07:50:50;6.50;99.90
44731;DHT22;30458;47.448;19.032;2022-12-07T08:00:53;6.50;99.90
44731;DHT22;30458;47.448;19.032;2022-12-07T08:10:56;6.20;99.90
44731;DHT22;30458;47.448;19.032;2022-12-07T08:21:04;6.10;99.90
44731;DHT22;30458;47.448;19.032;2022-12-07T08:31:15;6.40;99.90
44731;DHT22;30458;47.448;19.032;2022-12-07T08:41:17;6.90;99.90
44731;DHT22;30458;47.448;19.032;2022-12-07T08:51:20;7.20;99.90
44731;DHT22;30458;47.448;19.032;2022-12-07T09:01:21;7.70;99.90
44731;DHT22;30458;47.448;19.032;2022-12-07T09:11:22;7.90;99.90
44731;DHT22;30458;47.448;19.032;2022-12-07T09:21:22;8.10;99.90
44731;DHT22;30458;47.448;19.032;2022-12-07T09:31:23;8.40;99.90
44731;DHT22;30458;47.448;19.032;2022-12-07T09:41:27;8.60;99.90
44731;DHT22;30458;47.448;19.032;2022-12-07T09:51:30;8.80;99.90
44731;DHT22;30458;47.448;19.032;2022-12-07T10:01:34;8.30;99.90
44731;DHT22;30458;47.448;19.032;2022-12-07T10:11:34;8.30;99.90
44731;DHT22;30458;47.448;19.032;2022-12-07T10:21:35;8.40;99.90
44731;DHT22;30458;47.448;19.032;2022-12-07T10:31:38;8.60;99.90
44731;DHT22;30458;47.448;19.032;2022-12-07T10:42:17;8.60;99.90
44731;DHT22;30458;47.448;19.032;2022-12-07T11:24:19;8.30;99.90
44731;DHT22;30458;47.448;19.032;2022-12-07T11:45:13;8.50;99.90
44731;DHT22;30458;47.448;19.032;2022-12-07T11:55:41;8.50;99.90
44731;DHT22;30458;47.448;19.032;2022-12-07T12:05:40;8.70;99.90
44731;DHT22;30458;47.448;19.032;2022-12-07T12:25:58;8.50;99.90
44731;DHT22;30458;47.448;19.032;2022-12-07T13:06:52;9.00;99.90
44731;DHT22;30458;47.448;19.032;2022-12-07T13:16:53;9.00;99.90
44731;DHT22;30458;47.448;19.032;2022-12-07T13:26:57;8.60;99.90
44731;DHT22;30458;47.448;19.032;2022-12-07T13:57:44;8.00;99.90
44731;DHT22;30458;47.448;19.032;2022-12-07T14:17:57;8.20;99.90
44731;DHT22;30458;47.448;19.032;2022-12-07T14:28:00;8.10;99.90
44731;DHT22;30458;47.448;19.032;2022-12-07T14:38:01;8.20;99.90
44731;DHT22;30458;47.448;19.032;2022-12-07T14:48:02;8.40;99.90
44731;DHT22;30458;47.448;19.032;2022-12-07T14:58:13;8.40;99.90
44731;DHT22;30458;47.448;19.032;2022-12-07T15:08:16;8.30;99.90
44731;DHT22;30458;47.448;19.032;2022-12-07T15:18:21;8.20;99.90
44731;DHT22;30458;47.448;19.032;2022-12-07T15:28:21;8.20;99.90
44731;DHT22;30458;47.448;19.032;2022-12-07T15:38:25;8.10;99.90
44731;DHT22;30458;47.448;19.032;2022-12-07T15:48:27;8.00;99.90
44731;DHT22;30458;47.448;19.032;2022-12-07T15:58:34;7.80;99.90
44731;DHT22;30458;47.448;19.032;2022-12-07T16:08:45;7.70;99.90
44731;DHT22;30458;47.448;19.032;2022-12-07T16:18:46;7.60;99.90
44731;DHT22;30458;47.448;19.032;2022-12-07T16:28:51;7.40;99.90
44731;DHT22;30458;47.448;19.032;2022-12-07T16:38:58;7.20;99.90
44731;DHT22;30458;47.448;19.032;2022-12-07T16:48:59;7.00;99.90
44731;DHT22;30458;47.448;19.032;2022-12-07T16:59:00;6.90;99.90
44731;DHT22;30458;47.448;19.032;2022-12-07T17:09:03;6.90;99.90
44731;DHT22;30458;47.448;19.032;2022-12-07T17:19:11;6.70;99.90
44731;DHT22;30458;47.448;19.032;2022-12-07T17:29:18;6.50;99.90
44731;DHT22;30458;47.448;19.032;2022-12-07T17:39:19;6.30;99.90
44731;DHT22;30458;47.448;19.032;2022-12-07T17:49:22;5.90;99.90
44731;DHT22;30458;47.448;19.032;2022-12-07T17:59:24;5.90;99.90
44731;DHT22;30458;47.448;19.032;2022-12-07T18:09:27;5.70;99.90
44731;DHT22;30458;47.448;19.032;2022-12-07T18:19:27;5.70;99.90
44731;DHT22;30458;47.448;19.032;2022-12-07T18:29:28;5.60;99.90
44731;DHT22;30458;47.448;19.032;2022-12-07T18:39:29;5.40;99.90
44731;DHT22;30458;47.448;19.032;2022-12-07T18:49:32;5.40;99.90
44731;DHT22;30458;47.448;19.032;2022-12-07T18:59:35;5.40;99.90
44731;DHT22;30458;47.448;19.032;2022-12-07T19:09:51;5.20;99.90
44731;DHT22;30458;47.448;19.032;2022-12-07T19:19:54;5.10;99.90
44731;DHT22;30458;47.448;19.032;2022-12-07T19:29:55;5.00;99.90
44731;DHT22;30458;47.448;19.032;2022-12-07T19:39:58;4.90;99.90
44731;DHT22;30458;47.448;19.032;2022-12-07T19:49:58;4.90;99.90
44731;DHT22;30458;47.448;19.032;2022-12-07T19:59:59;4.80;99.90
44731;DHT22;30458;47.448;19.032;2022-12-07T20:10:00;4.80;99.90
44731;DHT22;30458;47.448;19.032;2022-12-07T20:20:03;4.80;99.90
44731;DHT22;30458;47.448;19.032;2022-12-07T20:30:07;4.60;99.90
44731;DHT22;30458;47.448;19.032;2022-12-07T20:40:10;4.50;99.90
44731;DHT22;30458;47.448;19.032;2022-12-07T20:50:11;4.50;99.90
44731;DHT22;30458;47.448;19.032;2022-12-07T21:00:12;4.60;99.90
44731;DHT22;30458;47.448;19.032;2022-12-07T21:10:13;4.50;99.90
44731;DHT22;30458;47.448;19.032;2022-12-07T21:20:14;4.40;99.90
44731;DHT22;30458;47.448;19.032;2022-12-07T21:30:17;4.00;99.90
44731;DHT22;30458;47.448;19.032;2022-12-07T21:40:18;3.70;99.90
44731;DHT22;30458;47.448;19.032;2022-12-07T21:50:21;3.60;99.90
44731;DHT22;30458;47.448;19.032;2022-12-07T22:00:24;3.20;99.90
44731;DHT22;30458;47.448;19.032;2022-12-07T22:10:27;3.20;99.90
44731;DHT22;30458;47.448;19.032;2022-12-07T22:20:30;3.10;99.90
44731;DHT22;30458;47.448;19.032;2022-12-07T22:30:33;3.30;99.90
44731;DHT22;30458;47.448;19.032;2022-12-07T22:40:34;3.50;99.90
44731;DHT22;30458;47.448;19.032;2022-12-07T22:50:35;3.40;99.90
44731;DHT22;30458;47.448;19.032;2022-12-07T23:00:36;3.20;99.90
44731;DHT22;30458;47.448;19.032;2022-12-07T23:10:43;3.00;99.90
44731;DHT22;30458;47.448;19.032;2022-12-07T23:20:46;2.70;99.90
44731;DHT22;30458;47.448;19.032;2022-12-07T23:30:47;3.00;99.90
44731;DHT22;30458;47.448;19.032;2022-12-07T23:40:50;3.00;99.90
44731;DHT22;30458;47.448;19.032;2022-12-07T23:50:51;3.30;99.90
